sensor_id;sensor_type;location;lat;lon;timestamp;P1;durP1;ratioP1;P2;durP2;ratioP2
66567;SDS011;53422;49.296;6.900;2024-03-07T00:00:00;11.27;;;5.10;;
66567;SDS011;53422;49.296;6.900;2024-03-07T00:02:49;10.85;;;5.38;;
66567;SDS011;53422;49.296;6.900;2024-03-07T00:05:18;23.25;;;8.75;;
66567;SDS011;53422;49.296;6.900;2024-03-07T00:07:46;21.52;;;8.25;;
66567;SDS011;53422;49.296;6.900;2024-03-07T00:10:12;25.45;;;10.25;;
66567;SDS011;53422;49.296;6.900;2024-03-07T00:12:39;17.67;;;6.47;;
66567;SDS011;53422;49.296;6.900;2024-03-07T00:15:08;26.75;;;9.65;;
66567;SDS011;53422;49.296;6.900;2024-03-07T00:17:38;19.77;;;7.72;;
66567;SDS011;53422;49.296;6.900;2024-03-07T00:20:04;25.23;;;7.95;;
66567;SDS011;53422;49.296;6.900;2024-03-07T00:22:34;22.85;;;8.23;;
66567;SDS011;53422;49.296;6.900;2024-03-07T00:25:00;20.88;;;7.90;;
66567;SDS011;53422;49.296;6.900;2024-03-07T00:27:26;22.60;;;7.57;;
66567;SDS011;53422;49.296;6.900;2024-03-07T00:29:52;24.60;;;8.60;;
66567;SDS011;53422;49.296;6.900;2024-03-07T00:32:21;28.85;;;9.70;;
66567;SDS011;53422;49.296;6.900;2024-03-07T00:34:47;34.42;;;10.30;;
66567;SDS011;53422;49.296;6.900;2024-03-07T00:37:14;33.63;;;11.32;;
66567;SDS011;53422;49.296;6.900;2024-03-07T00:39:40;30.02;;;9.60;;
66567;SDS011;53422;49.296;6.900;2024-03-07T00:42:05;28.70;;;10.57;;
66567;SDS011;53422;49.296;6.900;2024-03-07T00:44:32;33.08;;;11.55;;
66567;SDS011;53422;49.296;6.900;2024-03-07T00:46:57;30.30;;;9.77;;
66567;SDS011;53422;49.296;6.900;2024-03-07T00:49:23;32.95;;;10.07;;
66567;SDS011;53422;49.296;6.900;2024-03-07T00:51:49;39.20;;;12.27;;
66567;SDS011;53422;49.296;6.900;2024-03-07T00:54:15;18.00;;;6.82;;
66567;SDS011;53422;49.296;6.900;2024-03-07T00:56:41;31.75;;;10.60;;
66567;SDS011;53422;49.296;6.900;2024-03-07T00:59:06;23.05;;;9.02;;
66567;SDS011;53422;49.296;6.900;2024-03-07T01:01:32;28.45;;;10.52;;
66567;SDS011;53422;49.296;6.900;2024-03-07T01:03:59;29.25;;;10.02;;
66567;SDS011;53422;49.296;6.900;2024-03-07T01:06:25;35.53;;;11.77;;
66567;SDS011;53422;49.296;6.900;2024-03-07T01:08:51;41.63;;;12.23;;
66567;SDS011;53422;49.296;6.900;2024-03-07T01:11:17;34.25;;;13.30;;
66567;SDS011;53422;49.296;6.900;2024-03-07T01:13:42;32.58;;;12.13;;
66567;SDS011;53422;49.296;6.900;2024-03-07T01:16:08;34.08;;;11.52;;
66567;SDS011;53422;49.296;6.900;2024-03-07T01:18:34;27.67;;;9.80;;
66567;SDS011;53422;49.296;6.900;2024-03-07T01:21:00;31.85;;;10.40;;
66567;SDS011;53422;49.296;6.900;2024-03-07T01:23:27;29.25;;;9.57;;
66567;SDS011;53422;49.296;6.900;2024-03-07T01:28:24;30.40;;;11.38;;
66567;SDS011;53422;49.296;6.900;2024-03-07T01:30:51;34.90;;;13.68;;
66567;SDS011;53422;49.296;6.900;2024-03-07T01:33:17;9.73;;;4.78;;
66567;SDS011;53422;49.296;6.900;2024-03-07T01:35:44;35.95;;;12.65;;
66567;SDS011;53422;49.296;6.900;2024-03-07T01:38:10;32.17;;;12.30;;
66567;SDS011;53422;49.296;6.900;2024-03-07T01:40:38;34.67;;;13.20;;
66567;SDS011;53422;49.296;6.900;2024-03-07T01:43:05;28.08;;;10.95;;
66567;SDS011;53422;49.296;6.900;2024-03-07T01:45:31;32.35;;;11.98;;
66567;SDS011;53422;49.296;6.900;2024-03-07T01:47:57;37.85;;;13.10;;
66567;SDS011;53422;49.296;6.900;2024-03-07T01:50:23;23.63;;;7.18;;
66567;SDS011;53422;49.296;6.900;2024-03-07T01:52:49;26.02;;;8.88;;
66567;SDS011;53422;49.296;6.900;2024-03-07T01:55:16;30.73;;;11.07;;
66567;SDS011;53422;49.296;6.900;2024-03-07T01:57:44;33.78;;;13.13;;
66567;SDS011;53422;49.296;6.900;2024-03-07T02:00:10;38.33;;;11.35;;
66567;SDS011;53422;49.296;6.900;2024-03-07T02:02:37;34.35;;;11.18;;
66567;SDS011;53422;49.296;6.900;2024-03-07T02:05:03;40.50;;;13.52;;
66567;SDS011;53422;49.296;6.900;2024-03-07T02:07:29;33.35;;;12.50;;
66567;SDS011;53422;49.296;6.900;2024-03-07T02:09:59;33.90;;;12.25;;
66567;SDS011;53422;49.296;6.900;2024-03-07T02:12:25;37.83;;;13.15;;
66567;SDS011;53422;49.296;6.900;2024-03-07T02:14:51;33.88;;;12.60;;
66567;SDS011;53422;49.296;6.900;2024-03-07T02:17:17;37.58;;;13.65;;
66567;SDS011;53422;49.296;6.900;2024-03-07T02:19:45;33.38;;;13.23;;
66567;SDS011;53422;49.296;6.900;2024-03-07T02:22:11;39.47;;;14.18;;
66567;SDS011;53422;49.296;6.900;2024-03-07T02:24:38;37.08;;;13.40;;
66567;SDS011;53422;49.296;6.900;2024-03-07T02:27:03;27.65;;;10.40;;
66567;SDS011;53422;49.296;6.900;2024-03-07T02:29:29;39.22;;;13.23;;
66567;SDS011;53422;49.296;6.900;2024-03-07T02:31:55;30.90;;;10.70;;
66567;SDS011;53422;49.296;6.900;2024-03-07T02:34:21;29.77;;;10.50;;
66567;SDS011;53422;49.296;6.900;2024-03-07T02:36:47;35.70;;;12.48;;
66567;SDS011;53422;49.296;6.900;2024-03-07T02:39:13;26.30;;;10.27;;
66567;SDS011;53422;49.296;6.900;2024-03-07T02:41:38;35.70;;;13.25;;
66567;SDS011;53422;49.296;6.900;2024-03-07T02:44:04;36.67;;;14.88;;
66567;SDS011;53422;49.296;6.900;2024-03-07T02:46:30;36.78;;;12.88;;
66567;SDS011;53422;49.296;6.900;2024-03-07T02:48:57;32.95;;;11.60;;
66567;SDS011;53422;49.296;6.900;2024-03-07T02:51:23;35.50;;;13.32;;
66567;SDS011;53422;49.296;6.900;2024-03-07T02:53:49;29.38;;;11.90;;
66567;SDS011;53422;49.296;6.900;2024-03-07T02:56:15;33.50;;;12.52;;
66567;SDS011;53422;49.296;6.900;2024-03-07T02:58:40;29.05;;;10.93;;
66567;SDS011;53422;49.296;6.900;2024-03-07T03:01:06;29.52;;;11.00;;
66567;SDS011;53422;49.296;6.900;2024-03-07T03:03:31;40.80;;;14.25;;
66567;SDS011;53422;49.296;6.900;2024-03-07T03:05:58;28.98;;;11.25;;
66567;SDS011;53422;49.296;6.900;2024-03-07T03:08:24;25.75;;;9.98;;
66567;SDS011;53422;49.296;6.900;2024-03-07T03:10:51;34.42;;;12.73;;
66567;SDS011;53422;49.296;6.900;2024-03-07T03:13:16;27.13;;;10.68;;
66567;SDS011;53422;49.296;6.900;2024-03-07T03:15:42;34.13;;;12.15;;
66567;SDS011;53422;49.296;6.900;2024-03-07T03:18:08;33.20;;;12.27;;
66567;SDS011;53422;49.296;6.900;2024-03-07T03:20:34;38.00;;;14.35;;
66567;SDS011;53422;49.296;6.900;2024-03-07T03:23:03;14.93;;;6.80;;
66567;SDS011;53422;49.296;6.900;2024-03-07T03:25:30;28.58;;;10.15;;
66567;SDS011;53422;49.296;6.900;2024-03-07T03:28:03;30.35;;;12.48;;
66567;SDS011;53422;49.296;6.900;2024-03-07T03:30:30;16.77;;;7.13;;
66567;SDS011;53422;49.296;6.900;2024-03-07T03:32:57;37.35;;;12.43;;
66567;SDS011;53422;49.296;6.900;2024-03-07T03:35:23;33.15;;;12.02;;
66567;SDS011;53422;49.296;6.900;2024-03-07T03:37:49;31.23;;;11.68;;
66567;SDS011;53422;49.296;6.900;2024-03-07T03:40:15;34.13;;;11.63;;
66567;SDS011;53422;49.296;6.900;2024-03-07T03:42:41;31.25;;;12.27;;
66567;SDS011;53422;49.296;6.900;2024-03-07T03:45:08;33.35;;;12.45;;
66567;SDS011;53422;49.296;6.900;2024-03-07T03:47:39;31.52;;;11.70;;
66567;SDS011;53422;49.296;6.900;2024-03-07T03:50:05;29.20;;;9.88;;
66567;SDS011;53422;49.296;6.900;2024-03-07T03:52:32;31.27;;;10.63;;
66567;SDS011;53422;49.296;6.900;2024-03-07T03:55:00;31.65;;;11.30;;
66567;SDS011;53422;49.296;6.900;2024-03-07T03:57:26;33.92;;;11.70;;
66567;SDS011;53422;49.296;6.900;2024-03-07T03:59:52;26.73;;;10.02;;
66567;SDS011;53422;49.296;6.900;2024-03-07T04:02:18;34.92;;;11.82;;
66567;SDS011;53422;49.296;6.900;2024-03-07T04:04:44;32.08;;;11.13;;
66567;SDS011;53422;49.296;6.900;2024-03-07T04:07:13;34.03;;;10.70;;
66567;SDS011;53422;49.296;6.900;2024-03-07T04:09:38;28.85;;;11.10;;
66567;SDS011;53422;49.296;6.900;2024-03-07T04:12:04;31.13;;;11.65;;
66567;SDS011;53422;49.296;6.900;2024-03-07T04:14:30;30.55;;;12.00;;
66567;SDS011;53422;49.296;6.900;2024-03-07T04:16:58;36.35;;;12.50;;
66567;SDS011;53422;49.296;6.900;2024-03-07T04:19:23;36.58;;;12.30;;
66567;SDS011;53422;49.296;6.900;2024-03-07T04:21:50;30.25;;;10.90;;
66567;SDS011;53422;49.296;6.900;2024-03-07T04:24:16;30.52;;;10.65;;
66567;SDS011;53422;49.296;6.900;2024-03-07T04:26:42;27.70;;;10.35;;
66567;SDS011;53422;49.296;6.900;2024-03-07T04:29:08;30.02;;;11.20;;
66567;SDS011;53422;49.296;6.900;2024-03-07T04:31:34;30.13;;;11.00;;
66567;SDS011;53422;49.296;6.900;2024-03-07T04:33:59;24.52;;;10.55;;
66567;SDS011;53422;49.296;6.900;2024-03-07T04:36:25;30.50;;;10.23;;
66567;SDS011;53422;49.296;6.900;2024-03-07T04:38:51;30.77;;;10.65;;
66567;SDS011;53422;49.296;6.900;2024-03-07T04:41:17;32.00;;;11.77;;
66567;SDS011;53422;49.296;6.900;2024-03-07T04:43:44;35.80;;;12.38;;
66567;SDS011;53422;49.296;6.900;2024-03-07T04:46:09;33.45;;;12.23;;
66567;SDS011;53422;49.296;6.900;2024-03-07T04:48:35;33.25;;;12.10;;
66567;SDS011;53422;49.296;6.900;2024-03-07T04:51:01;30.80;;;11.48;;
66567;SDS011;53422;49.296;6.900;2024-03-07T04:53:28;31.85;;;11.68;;
66567;SDS011;53422;49.296;6.900;2024-03-07T04:55:54;32.03;;;11.98;;
66567;SDS011;53422;49.296;6.900;2024-03-07T04:58:21;31.95;;;11.05;;
66567;SDS011;53422;49.296;6.900;2024-03-07T05:00:47;35.20;;;12.15;;
66567;SDS011;53422;49.296;6.900;2024-03-07T05:03:12;31.67;;;10.30;;
66567;SDS011;53422;49.296;6.900;2024-03-07T05:05:38;36.28;;;11.68;;
66567;SDS011;53422;49.296;6.900;2024-03-07T05:08:04;29.02;;;10.80;;
66567;SDS011;53422;49.296;6.900;2024-03-07T05:10:29;30.90;;;11.90;;
66567;SDS011;53422;49.296;6.900;2024-03-07T05:12:56;30.42;;;11.13;;
66567;SDS011;53422;49.296;6.900;2024-03-07T05:15:24;32.92;;;11.80;;
66567;SDS011;53422;49.296;6.900;2024-03-07T05:17:51;34.13;;;12.05;;
66567;SDS011;53422;49.296;6.900;2024-03-07T05:20:17;33.95;;;11.95;;
66567;SDS011;53422;49.296;6.900;2024-03-07T05:22:43;31.52;;;12.13;;
66567;SDS011;53422;49.296;6.900;2024-03-07T05:25:17;27.80;;;10.38;;
66567;SDS011;53422;49.296;6.900;2024-03-07T05:27:44;26.92;;;10.05;;
66567;SDS011;53422;49.296;6.900;2024-03-07T05:30:10;33.80;;;12.27;;
66567;SDS011;53422;49.296;6.900;2024-03-07T05:32:38;29.38;;;10.75;;
66567;SDS011;53422;49.296;6.900;2024-03-07T05:35:05;29.35;;;10.27;;
66567;SDS011;53422;49.296;6.900;2024-03-07T05:37:31;31.98;;;11.27;;
66567;SDS011;53422;49.296;6.900;2024-03-07T05:39:57;28.73;;;10.68;;
66567;SDS011;53422;49.296;6.900;2024-03-07T05:42:22;28.98;;;11.35;;
66567;SDS011;53422;49.296;6.900;2024-03-07T05:44:50;35.05;;;11.65;;
66567;SDS011;53422;49.296;6.900;2024-03-07T05:47:16;32.10;;;11.77;;
66567;SDS011;53422;49.296;6.900;2024-03-07T05:49:42;35.92;;;12.85;;
66567;SDS011;53422;49.296;6.900;2024-03-07T05:52:08;31.20;;;11.25;;
66567;SDS011;53422;49.296;6.900;2024-03-07T05:54:34;27.75;;;10.80;;
66567;SDS011;53422;49.296;6.900;2024-03-07T05:57:01;32.00;;;10.93;;
66567;SDS011;53422;49.296;6.900;2024-03-07T05:59:27;27.63;;;10.30;;
66567;SDS011;53422;49.296;6.900;2024-03-07T06:01:58;28.48;;;10.02;;
66567;SDS011;53422;49.296;6.900;2024-03-07T06:04:24;29.13;;;10.98;;
66567;SDS011;53422;49.296;6.900;2024-03-07T06:06:50;24.17;;;9.43;;
66567;SDS011;53422;49.296;6.900;2024-03-07T06:09:16;28.88;;;11.60;;
66567;SDS011;53422;49.296;6.900;2024-03-07T06:11:46;27.63;;;9.38;;
66567;SDS011;53422;49.296;6.900;2024-03-07T06:14:12;29.60;;;9.73;;
66567;SDS011;53422;49.296;6.900;2024-03-07T06:16:39;33.13;;;10.55;;
66567;SDS011;53422;49.296;6.900;2024-03-07T06:19:06;33.45;;;10.25;;
66567;SDS011;53422;49.296;6.900;2024-03-07T06:21:32;27.92;;;10.93;;
66567;SDS011;53422;49.296;6.900;2024-03-07T06:24:00;25.85;;;10.00;;
66567;SDS011;53422;49.296;6.900;2024-03-07T06:26:29;32.65;;;10.90;;
66567;SDS011;53422;49.296;6.900;2024-03-07T06:29:03;29.75;;;9.55;;
66567;SDS011;53422;49.296;6.900;2024-03-07T06:31:32;25.75;;;9.05;;
66567;SDS011;53422;49.296;6.900;2024-03-07T06:33:59;27.00;;;9.98;;
66567;SDS011;53422;49.296;6.900;2024-03-07T06:36:25;27.42;;;11.05;;
66567;SDS011;53422;49.296;6.900;2024-03-07T06:38:51;29.70;;;9.98;;
66567;SDS011;53422;49.296;6.900;2024-03-07T06:41:16;31.15;;;10.75;;
66567;SDS011;53422;49.296;6.900;2024-03-07T06:43:46;36.15;;;11.25;;
66567;SDS011;53422;49.296;6.900;2024-03-07T06:46:11;27.27;;;10.02;;
66567;SDS011;53422;49.296;6.900;2024-03-07T06:48:41;32.47;;;13.18;;
66567;SDS011;53422;49.296;6.900;2024-03-07T06:51:09;35.38;;;12.32;;
66567;SDS011;53422;49.296;6.900;2024-03-07T06:53:35;35.60;;;11.50;;
66567;SDS011;53422;49.296;6.900;2024-03-07T06:56:01;32.15;;;11.93;;
66567;SDS011;53422;49.296;6.900;2024-03-07T06:58:27;44.72;;;15.00;;
66567;SDS011;53422;49.296;6.900;2024-03-07T07:00:53;35.08;;;11.57;;
66567;SDS011;53422;49.296;6.900;2024-03-07T07:03:23;37.53;;;13.15;;
66567;SDS011;53422;49.296;6.900;2024-03-07T07:05:49;36.13;;;11.85;;
66567;SDS011;53422;49.296;6.900;2024-03-07T07:08:15;32.92;;;11.63;;
66567;SDS011;53422;49.296;6.900;2024-03-07T07:10:41;31.30;;;11.15;;
66567;SDS011;53422;49.296;6.900;2024-03-07T07:13:08;33.65;;;12.32;;
66567;SDS011;53422;49.296;6.900;2024-03-07T07:15:34;28.70;;;11.20;;
66567;SDS011;53422;49.296;6.900;2024-03-07T07:18:01;39.25;;;13.63;;
66567;SDS011;53422;49.296;6.900;2024-03-07T07:20:27;29.08;;;11.02;;
66567;SDS011;53422;49.296;6.900;2024-03-07T07:22:53;26.65;;;10.25;;
66567;SDS011;53422;49.296;6.900;2024-03-07T07:25:20;36.95;;;14.50;;
66567;SDS011;53422;49.296;6.900;2024-03-07T07:30:13;32.72;;;12.00;;
66567;SDS011;53422;49.296;6.900;2024-03-07T07:32:43;26.05;;;10.63;;
66567;SDS011;53422;49.296;6.900;2024-03-07T07:35:10;32.22;;;10.73;;
66567;SDS011;53422;49.296;6.900;2024-03-07T07:37:40;30.27;;;11.75;;
66567;SDS011;53422;49.296;6.900;2024-03-07T07:40:14;33.95;;;13.85;;
66567;SDS011;53422;49.296;6.900;2024-03-07T07:42:46;37.38;;;15.45;;
66567;SDS011;53422;49.296;6.900;2024-03-07T07:45:14;40.85;;;14.88;;
66567;SDS011;53422;49.296;6.900;2024-03-07T07:47:50;19.83;;;8.80;;
66567;SDS011;53422;49.296;6.900;2024-03-07T07:50:18;42.22;;;14.85;;
66567;SDS011;53422;49.296;6.900;2024-03-07T07:52:46;19.75;;;9.30;;
66567;SDS011;53422;49.296;6.900;2024-03-07T07:55:15;32.35;;;11.93;;
66567;SDS011;53422;49.296;6.900;2024-03-07T07:57:45;39.90;;;13.90;;
66567;SDS011;53422;49.296;6.900;2024-03-07T08:00:12;37.20;;;13.05;;
66567;SDS011;53422;49.296;6.900;2024-03-07T08:02:52;38.08;;;12.75;;
66567;SDS011;53422;49.296;6.900;2024-03-07T08:05:25;19.45;;;7.97;;
66567;SDS011;53422;49.296;6.900;2024-03-07T08:07:54;20.58;;;8.50;;
66567;SDS011;53422;49.296;6.900;2024-03-07T08:10:23;25.65;;;9.07;;
66567;SDS011;53422;49.296;6.900;2024-03-07T08:12:50;35.35;;;14.65;;
66567;SDS011;53422;49.296;6.900;2024-03-07T08:15:17;23.60;;;9.88;;
66567;SDS011;53422;49.296;6.900;2024-03-07T08:17:43;31.25;;;12.60;;
66567;SDS011;53422;49.296;6.900;2024-03-07T08:20:15;29.63;;;11.20;;
66567;SDS011;53422;49.296;6.900;2024-03-07T08:22:43;32.15;;;12.85;;
66567;SDS011;53422;49.296;6.900;2024-03-07T08:25:13;33.55;;;13.35;;
66567;SDS011;53422;49.296;6.900;2024-03-07T08:27:41;29.55;;;12.20;;
66567;SDS011;53422;49.296;6.900;2024-03-07T08:30:08;32.45;;;13.02;;
66567;SDS011;53422;49.296;6.900;2024-03-07T08:32:39;34.85;;;14.05;;
66567;SDS011;53422;49.296;6.900;2024-03-07T08:35:06;13.10;;;6.18;;
66567;SDS011;53422;49.296;6.900;2024-03-07T08:37:35;18.73;;;8.60;;
66567;SDS011;53422;49.296;6.900;2024-03-07T08:40:01;25.70;;;11.43;;
66567;SDS011;53422;49.296;6.900;2024-03-07T08:42:32;26.55;;;9.65;;
66567;SDS011;53422;49.296;6.900;2024-03-07T08:44:59;17.60;;;7.00;;
66567;SDS011;53422;49.296;6.900;2024-03-07T08:47:31;25.35;;;9.95;;
66567;SDS011;53422;49.296;6.900;2024-03-07T08:49:58;19.92;;;7.97;;
66567;SDS011;53422;49.296;6.900;2024-03-07T08:52:24;21.30;;;9.25;;
66567;SDS011;53422;49.296;6.900;2024-03-07T08:54:50;22.48;;;9.82;;
66567;SDS011;53422;49.296;6.900;2024-03-07T08:57:16;16.67;;;7.85;;
66567;SDS011;53422;49.296;6.900;2024-03-07T08:59:43;21.20;;;7.55;;
66567;SDS011;53422;49.296;6.900;2024-03-07T09:02:09;22.63;;;9.55;;
66567;SDS011;53422;49.296;6.900;2024-03-07T09:04:36;13.73;;;5.95;;
66567;SDS011;53422;49.296;6.900;2024-03-07T09:07:03;23.10;;;10.23;;
66567;SDS011;53422;49.296;6.900;2024-03-07T09:09:31;13.32;;;5.85;;
66567;SDS011;53422;49.296;6.900;2024-03-07T09:11:57;18.52;;;6.95;;
66567;SDS011;53422;49.296;6.900;2024-03-07T09:14:22;19.55;;;8.30;;
66567;SDS011;53422;49.296;6.900;2024-03-07T09:16:48;19.00;;;7.78;;
66567;SDS011;53422;49.296;6.900;2024-03-07T09:19:14;12.50;;;6.25;;
66567;SDS011;53422;49.296;6.900;2024-03-07T09:21:45;24.48;;;9.73;;
66567;SDS011;53422;49.296;6.900;2024-03-07T09:24:11;22.23;;;8.38;;
66567;SDS011;53422;49.296;6.900;2024-03-07T09:26:37;20.55;;;7.15;;
66567;SDS011;53422;49.296;6.900;2024-03-07T09:29:03;17.17;;;6.47;;
66567;SDS011;53422;49.296;6.900;2024-03-07T09:31:31;24.92;;;10.15;;
66567;SDS011;53422;49.296;6.900;2024-03-07T09:33:57;14.63;;;5.95;;
66567;SDS011;53422;49.296;6.900;2024-03-07T09:36:23;21.02;;;8.73;;
66567;SDS011;53422;49.296;6.900;2024-03-07T09:38:49;20.85;;;8.75;;
66567;SDS011;53422;49.296;6.900;2024-03-07T09:41:15;20.38;;;8.38;;
66567;SDS011;53422;49.296;6.900;2024-03-07T09:43:42;23.45;;;8.90;;
66567;SDS011;53422;49.296;6.900;2024-03-07T09:46:11;29.15;;;10.27;;
66567;SDS011;53422;49.296;6.900;2024-03-07T09:48:37;20.05;;;9.10;;
66567;SDS011;53422;49.296;6.900;2024-03-07T09:51:04;20.70;;;9.85;;
66567;SDS011;53422;49.296;6.900;2024-03-07T09:53:32;14.68;;;5.68;;
66567;SDS011;53422;49.296;6.900;2024-03-07T09:55:59;18.27;;;7.72;;
66567;SDS011;53422;49.296;6.900;2024-03-07T09:58:26;18.60;;;6.85;;
66567;SDS011;53422;49.296;6.900;2024-03-07T10:00:55;16.63;;;6.18;;
66567;SDS011;53422;49.296;6.900;2024-03-07T10:03:22;22.63;;;9.85;;
66567;SDS011;53422;49.296;6.900;2024-03-07T10:05:52;17.95;;;6.97;;
66567;SDS011;53422;49.296;6.900;2024-03-07T10:08:18;27.30;;;10.52;;
66567;SDS011;53422;49.296;6.900;2024-03-07T10:10:46;14.68;;;6.78;;
66567;SDS011;53422;49.296;6.900;2024-03-07T10:13:12;13.23;;;6.95;;
66567;SDS011;53422;49.296;6.900;2024-03-07T10:15:38;19.33;;;6.18;;
66567;SDS011;53422;49.296;6.900;2024-03-07T10:18:07;25.98;;;10.80;;
66567;SDS011;53422;49.296;6.900;2024-03-07T10:20:36;10.93;;;5.72;;
66567;SDS011;53422;49.296;6.900;2024-03-07T10:23:02;12.98;;;5.40;;
66567;SDS011;53422;49.296;6.900;2024-03-07T10:25:29;15.52;;;8.07;;
66567;SDS011;53422;49.296;6.900;2024-03-07T10:27:54;15.77;;;7.28;;
66567;SDS011;53422;49.296;6.900;2024-03-07T10:30:20;20.50;;;8.93;;
66567;SDS011;53422;49.296;6.900;2024-03-07T10:33:07;5.57;;;3.70;;
66567;SDS011;53422;49.296;6.900;2024-03-07T10:35:32;17.08;;;7.10;;
66567;SDS011;53422;49.296;6.900;2024-03-07T10:37:58;13.20;;;4.95;;
66567;SDS011;53422;49.296;6.900;2024-03-07T10:40:31;14.70;;;7.03;;
66567;SDS011;53422;49.296;6.900;2024-03-07T10:42:58;16.45;;;7.57;;
66567;SDS011;53422;49.296;6.900;2024-03-07T10:45:30;18.08;;;6.95;;
66567;SDS011;53422;49.296;6.900;2024-03-07T10:48:00;15.77;;;6.50;;
66567;SDS011;53422;49.296;6.900;2024-03-07T10:56:21;23.25;;;9.20;;
66567;SDS011;53422;49.296;6.900;2024-03-07T10:59:16;18.95;;;9.07;;
66567;SDS011;53422;49.296;6.900;2024-03-07T11:01:51;17.65;;;6.00;;
66567;SDS011;53422;49.296;6.900;2024-03-07T11:04:31;18.50;;;8.35;;
66567;SDS011;53422;49.296;6.900;2024-03-07T11:06:59;16.33;;;8.02;;
66567;SDS011;53422;49.296;6.900;2024-03-07T11:09:25;13.60;;;7.03;;
66567;SDS011;53422;49.296;6.900;2024-03-07T11:11:58;20.35;;;9.18;;
66567;SDS011;53422;49.296;6.900;2024-03-07T11:14:28;22.10;;;9.27;;
66567;SDS011;53422;49.296;6.900;2024-03-07T11:16:54;16.92;;;8.40;;
66567;SDS011;53422;49.296;6.900;2024-03-07T11:19:31;13.13;;;5.85;;
66567;SDS011;53422;49.296;6.900;2024-03-07T11:22:01;15.32;;;6.43;;
66567;SDS011;53422;49.296;6.900;2024-03-07T11:24:30;16.33;;;6.28;;
66567;SDS011;53422;49.296;6.900;2024-03-07T11:27:02;19.77;;;8.02;;
66567;SDS011;53422;49.296;6.900;2024-03-07T11:32:10;13.00;;;6.82;;
66567;SDS011;53422;49.296;6.900;2024-03-07T11:34:38;17.23;;;7.13;;
66567;SDS011;53422;49.296;6.900;2024-03-07T11:37:08;20.73;;;7.80;;
66567;SDS011;53422;49.296;6.900;2024-03-07T11:39:43;15.57;;;7.25;;
66567;SDS011;53422;49.296;6.900;2024-03-07T11:42:19;15.65;;;7.25;;
66567;SDS011;53422;49.296;6.900;2024-03-07T11:44:48;19.95;;;9.18;;
66567;SDS011;53422;49.296;6.900;2024-03-07T11:47:16;22.20;;;10.07;;
66567;SDS011;53422;49.296;6.900;2024-03-07T11:49:43;15.23;;;6.78;;
66567;SDS011;53422;49.296;6.900;2024-03-07T11:52:11;18.50;;;8.43;;
66567;SDS011;53422;49.296;6.900;2024-03-07T11:54:38;11.38;;;4.97;;
66567;SDS011;53422;49.296;6.900;2024-03-07T11:57:11;20.88;;;7.93;;
66567;SDS011;53422;49.296;6.900;2024-03-07T11:59:41;15.20;;;6.53;;
66567;SDS011;53422;49.296;6.900;2024-03-07T12:02:14;14.02;;;6.13;;
66567;SDS011;53422;49.296;6.900;2024-03-07T12:04:44;12.07;;;5.85;;
66567;SDS011;53422;49.296;6.900;2024-03-07T12:07:09;19.88;;;9.32;;
66567;SDS011;53422;49.296;6.900;2024-03-07T12:09:39;15.90;;;6.40;;
66567;SDS011;53422;49.296;6.900;2024-03-07T12:12:07;17.13;;;6.93;;
66567;SDS011;53422;49.296;6.900;2024-03-07T12:14:34;21.00;;;9.18;;
66567;SDS011;53422;49.296;6.900;2024-03-07T12:17:03;13.18;;;4.47;;
66567;SDS011;53422;49.296;6.900;2024-03-07T12:19:34;12.38;;;5.97;;
66567;SDS011;53422;49.296;6.900;2024-03-07T12:22:03;21.25;;;8.00;;
66567;SDS011;53422;49.296;6.900;2024-03-07T12:24:29;17.98;;;8.18;;
66567;SDS011;53422;49.296;6.900;2024-03-07T12:27:14;10.80;;;4.85;;
66567;SDS011;53422;49.296;6.900;2024-03-07T12:29:42;8.43;;;3.97;;
66567;SDS011;53422;49.296;6.900;2024-03-07T12:32:09;12.18;;;5.47;;
66567;SDS011;53422;49.296;6.900;2024-03-07T12:34:38;16.42;;;6.40;;
66567;SDS011;53422;49.296;6.900;2024-03-07T12:37:10;9.95;;;5.93;;
66567;SDS011;53422;49.296;6.900;2024-03-07T12:39:36;10.02;;;5.18;;
66567;SDS011;53422;49.296;6.900;2024-03-07T12:42:11;18.30;;;7.63;;
66567;SDS011;53422;49.296;6.900;2024-03-07T12:44:45;7.82;;;3.88;;
66567;SDS011;53422;49.296;6.900;2024-03-07T12:47:15;18.85;;;8.32;;
66567;SDS011;53422;49.296;6.900;2024-03-07T12:49:41;14.82;;;5.88;;
66567;SDS011;53422;49.296;6.900;2024-03-07T12:52:08;18.33;;;7.50;;
66567;SDS011;53422;49.296;6.900;2024-03-07T12:54:37;12.70;;;6.03;;
66567;SDS011;53422;49.296;6.900;2024-03-07T12:57:08;15.63;;;7.13;;
66567;SDS011;53422;49.296;6.900;2024-03-07T12:59:37;10.77;;;4.80;;
66567;SDS011;53422;49.296;6.900;2024-03-07T13:02:06;10.15;;;4.32;;
66567;SDS011;53422;49.296;6.900;2024-03-07T13:04:35;17.25;;;7.75;;
66567;SDS011;53422;49.296;6.900;2024-03-07T13:07:05;16.45;;;6.57;;
66567;SDS011;53422;49.296;6.900;2024-03-07T13:09:31;19.17;;;8.15;;
66567;SDS011;53422;49.296;6.900;2024-03-07T13:11:58;14.27;;;5.75;;
66567;SDS011;53422;49.296;6.900;2024-03-07T13:14:26;9.77;;;4.22;;
66567;SDS011;53422;49.296;6.900;2024-03-07T13:16:57;10.73;;;5.32;;
66567;SDS011;53422;49.296;6.900;2024-03-07T13:19:27;10.57;;;4.75;;
66567;SDS011;53422;49.296;6.900;2024-03-07T13:21:54;10.70;;;4.45;;
66567;SDS011;53422;49.296;6.900;2024-03-07T13:24:20;14.27;;;6.30;;
66567;SDS011;53422;49.296;6.900;2024-03-07T13:26:46;8.68;;;3.55;;
66567;SDS011;53422;49.296;6.900;2024-03-07T13:29:13;12.20;;;6.30;;
66567;SDS011;53422;49.296;6.900;2024-03-07T13:31:39;11.73;;;4.97;;
66567;SDS011;53422;49.296;6.900;2024-03-07T13:34:08;10.98;;;5.38;;
66567;SDS011;53422;49.296;6.900;2024-03-07T13:36:40;16.00;;;7.50;;
66567;SDS011;53422;49.296;6.900;2024-03-07T13:39:07;16.35;;;8.55;;
66567;SDS011;53422;49.296;6.900;2024-03-07T13:41:43;11.55;;;6.05;;
66567;SDS011;53422;49.296;6.900;2024-03-07T13:44:13;12.27;;;4.55;;
66567;SDS011;53422;49.296;6.900;2024-03-07T13:46:39;15.65;;;8.18;;
66567;SDS011;53422;49.296;6.900;2024-03-07T13:49:05;17.02;;;7.60;;
66567;SDS011;53422;49.296;6.900;2024-03-07T13:51:41;9.57;;;4.40;;
66567;SDS011;53422;49.296;6.900;2024-03-07T13:54:28;19.10;;;7.05;;
66567;SDS011;53422;49.296;6.900;2024-03-07T14:02:53;9.77;;;4.65;;
66567;SDS011;53422;49.296;6.900;2024-03-07T14:19:13;16.20;;;6.18;;
66567;SDS011;53422;49.296;6.900;2024-03-07T14:33:08;12.88;;;5.05;;
66567;SDS011;53422;49.296;6.900;2024-03-07T14:38:25;13.57;;;6.45;;
66567;SDS011;53422;49.296;6.900;2024-03-07T14:41:12;12.05;;;5.28;;
66567;SDS011;53422;49.296;6.900;2024-03-07T14:43:40;11.15;;;5.18;;
66567;SDS011;53422;49.296;6.900;2024-03-07T14:46:09;11.00;;;3.58;;
66567;SDS011;53422;49.296;6.900;2024-03-07T14:48:38;14.80;;;6.07;;
66567;SDS011;53422;49.296;6.900;2024-03-07T14:51:05;12.68;;;5.72;;
66567;SDS011;53422;49.296;6.900;2024-03-07T14:53:34;12.60;;;5.95;;
66567;SDS011;53422;49.296;6.900;2024-03-07T14:56:01;8.27;;;3.88;;
66567;SDS011;53422;49.296;6.900;2024-03-07T14:58:26;12.27;;;4.97;;
66567;SDS011;53422;49.296;6.900;2024-03-07T15:00:52;11.27;;;4.43;;
66567;SDS011;53422;49.296;6.900;2024-03-07T15:03:19;13.40;;;4.70;;
66567;SDS011;53422;49.296;6.900;2024-03-07T15:05:45;9.48;;;3.75;;
66567;SDS011;53422;49.296;6.900;2024-03-07T15:08:12;8.50;;;4.18;;
66567;SDS011;53422;49.296;6.900;2024-03-07T15:10:40;10.57;;;4.22;;
66567;SDS011;53422;49.296;6.900;2024-03-07T15:13:11;15.38;;;6.05;;
66567;SDS011;53422;49.296;6.900;2024-03-07T15:15:38;17.30;;;7.38;;
66567;SDS011;53422;49.296;6.900;2024-03-07T15:18:05;12.98;;;5.50;;